createdAt,value
2019-05-19T00:00:35.962Z,40.40
2019-05-19T00:03:05.514Z,39.23
2019-05-19T00:05:35.133Z,45.67
2019-05-19T00:08:05.071Z,48.63
2019-05-19T00:10:35.616Z,46.53
2019-05-19T00:13:05.620Z,49.20
2019-05-19T00:15:35.176Z,50.13
2019-05-19T00:18:05.221Z,51.27
2019-05-19T00:20:34.749Z,48.10
2019-05-19T00:23:04.293Z,48.63
2019-05-19T00:25:34.972Z,49.83
2019-05-19T00:28:05.116Z,48.73
2019-05-19T00:30:34.632Z,50.57
2019-05-19T00:33:04.236Z,52.20
2019-05-19T00:35:34.113Z,52.03
2019-05-19T00:38:03.623Z,52.13
2019-05-19T00:43:33.490Z,50.20
2019-05-19T00:46:03.456Z,49.17
2019-05-19T00:48:33.080Z,50.53
2019-05-19T00:51:02.665Z,48.87
2019-05-19T00:53:32.276Z,52.10
2019-05-19T00:56:05.002Z,52.67
2019-05-19T00:58:35.878Z,49.53
2019-05-19T01:01:05.977Z,51.57
2019-05-19T01:03:35.515Z,54.13
2019-05-19T01:06:05.010Z,53.07
2019-05-19T01:08:34.515Z,50.70
2019-05-19T01:11:04.019Z,52.10
2019-05-19T01:13:33.469Z,52.43
2019-05-19T01:16:03.071Z,54.93
2019-05-19T01:18:32.631Z,52.30
2019-05-19T01:21:02.218Z,53.10
2019-05-19T01:23:31.730Z,54.50
2019-05-19T01:26:01.647Z,53.47
2019-05-19T01:28:31.205Z,54.37
2019-05-19T01:31:00.706Z,54.10
2019-05-19T01:33:30.245Z,52.60
2019-05-19T01:35:59.712Z,54.27
2019-05-19T01:38:29.241Z,57.90
2019-05-19T01:40:58.767Z,55.47
2019-05-19T01:43:53.786Z,52.73
2019-05-19T01:46:23.700Z,56.07
2019-05-19T01:48:53.357Z,61.60
2019-05-19T01:51:22.961Z,61.33
2019-05-19T01:56:40.305Z,78.73
2019-05-19T01:59:10.285Z,95.50
2019-05-19T02:01:39.792Z,93.87
2019-05-19T02:04:09.236Z,94.30
2019-05-19T02:06:41.769Z,82.73
2019-05-19T02:09:11.482Z,83.77
2019-05-19T02:11:41.484Z,73.53
2019-05-19T02:14:10.959Z,79.13
2019-05-19T02:16:40.965Z,71.10
2019-05-19T02:19:11.012Z,75.30
2019-05-19T02:24:36.275Z,80.43
2019-05-19T02:27:05.829Z,80.33
2019-05-19T02:29:35.357Z,80.27
2019-05-19T02:32:04.803Z,85.37
2019-05-19T02:34:34.613Z,81.43
2019-05-19T02:37:04.128Z,99.70
2019-05-19T02:39:33.573Z,103.90
2019-05-19T02:42:04.568Z,91.90
2019-05-19T02:44:36.614Z,89.57
2019-05-19T02:47:07.360Z,87.23
2019-05-19T02:49:37.946Z,83.70
2019-05-19T02:52:08.176Z,85.47
2019-05-19T02:54:40.172Z,85.97
2019-05-19T02:57:10.154Z,93.43
2019-05-19T02:59:40.761Z,86.67
2019-05-19T03:02:13.521Z,90.90
2019-05-19T03:04:42.994Z,90.83
2019-05-19T03:09:58.614Z,87.37
2019-05-19T03:12:28.122Z,91.60
2019-05-19T03:14:58.198Z,91.47
2019-05-19T03:17:27.645Z,91.17
2019-05-19T03:19:57.543Z,90.10
2019-05-19T03:22:27.019Z,91.07
2019-05-19T03:24:57.014Z,90.13
2019-05-19T03:27:26.875Z,90.07
2019-05-19T03:29:58.875Z,91.43
2019-05-19T03:35:23.999Z,96.07
2019-05-19T03:37:53.904Z,97.90
2019-05-19T03:40:23.533Z,101.23
2019-05-19T03:45:39.149Z,104.77
2019-05-19T03:48:08.689Z,104.67
2019-05-19T03:50:38.341Z,104.40
2019-05-19T03:53:07.816Z,105.53
2019-05-19T03:55:37.238Z,105.17
2019-05-19T03:58:07.523Z,105.43
2019-05-19T04:00:37.053Z,103.57
2019-05-19T04:03:06.787Z,110.20
2019-05-19T04:05:36.609Z,106.57
2019-05-19T04:08:06.305Z,114.17
2019-05-19T04:10:35.886Z,118.53
2019-05-19T04:13:07.950Z,106.40
2019-05-19T04:15:38.171Z,108.07
2019-05-19T04:18:08.071Z,104.77
2019-05-19T04:20:38.159Z,95.13
2019-05-19T04:23:07.802Z,94.27
2019-05-19T04:25:38.559Z,94.60
2019-05-19T04:28:09.708Z,101.50
2019-05-19T04:30:39.245Z,98.73
2019-05-19T04:33:08.842Z,103.60
2019-05-19T04:35:38.405Z,93.53
2019-05-19T04:38:10.590Z,105.73
2019-05-19T04:40:43.086Z,114.20
2019-05-19T04:43:13.012Z,130.03
2019-05-19T04:45:42.585Z,128.47
2019-05-19T04:48:12.938Z,127.73
2019-05-19T04:50:42.906Z,112.70
2019-05-19T04:53:12.915Z,104.37
2019-05-19T04:58:49.392Z,98.50
2019-05-19T05:01:19.281Z,95.40
2019-05-19T05:03:48.908Z,94.17
2019-05-19T05:06:18.763Z,94.70
2019-05-19T05:08:48.360Z,97.03
2019-05-19T05:11:18.131Z,95.00
2019-05-19T05:13:47.669Z,95.73
2019-05-19T05:16:17.846Z,96.37
2019-05-19T05:18:48.091Z,91.00
2019-05-19T05:21:17.746Z,88.50
2019-05-19T05:23:47.274Z,92.43
2019-05-19T05:29:16.283Z,91.43
2019-05-19T05:31:47.072Z,92.80
2019-05-19T05:34:16.712Z,90.70
2019-05-19T05:36:46.615Z,87.07
2019-05-19T05:39:16.449Z,84.90
2019-05-19T05:41:46.059Z,94.07
2019-05-19T05:44:16.161Z,85.13
2019-05-19T05:46:45.713Z,83.87
2019-05-19T05:55:01.447Z,80.77
2019-05-19T05:57:31.011Z,75.33
2019-05-19T06:00:02.804Z,81.93
2019-05-19T06:02:32.666Z,78.07
2019-05-19T06:05:27.508Z,78.50
2019-05-19T06:07:56.942Z,68.63
2019-05-19T06:10:26.437Z,74.10
2019-05-19T06:12:57.418Z,82.10
2019-05-19T06:15:28.101Z,80.17
2019-05-19T06:17:57.568Z,74.67
2019-05-19T06:20:27.075Z,72.40
2019-05-19T06:22:57.289Z,70.90
2019-05-19T06:25:27.926Z,68.37
2019-05-19T06:27:58.017Z,75.67
2019-05-19T06:30:28.421Z,68.93
2019-05-19T06:33:00.248Z,68.27
2019-05-19T06:35:29.775Z,66.80
2019-05-19T06:37:59.446Z,67.53
2019-05-19T06:40:28.917Z,63.93
2019-05-19T06:43:22.923Z,61.63
2019-05-19T06:45:52.811Z,60.67
2019-05-19T06:48:22.480Z,62.47
2019-05-19T06:50:52.009Z,63.47
2019-05-19T06:53:21.464Z,68.47
2019-05-19T06:55:50.966Z,68.53
2019-05-19T06:58:21.948Z,62.03
2019-05-19T07:00:51.511Z,56.77
2019-05-19T07:03:21.025Z,60.93
2019-05-19T07:05:50.559Z,60.83
2019-05-19T07:08:22.513Z,63.10
2019-05-19T07:10:51.952Z,61.17
2019-05-19T07:13:21.474Z,57.30
2019-05-19T07:15:51.066Z,60.97
2019-05-19T07:18:20.713Z,57.13
2019-05-19T07:20:51.042Z,55.13
2019-05-19T07:23:27.666Z,55.43
2019-05-19T07:25:51.756Z,58.50
2019-05-19T07:28:21.300Z,56.63
2019-05-19T07:30:50.794Z,59.80
2019-05-19T07:33:20.588Z,55.23
2019-05-19T07:38:40.348Z,52.67
2019-05-19T07:41:09.789Z,54.87
2019-05-19T07:43:39.297Z,49.20
2019-05-19T07:46:08.804Z,43.87
2019-05-19T07:48:38.289Z,47.87
2019-05-19T07:51:07.762Z,45.63
2019-05-19T07:53:42.862Z,46.23
2019-05-19T07:56:08.319Z,50.53
2019-05-19T07:58:37.807Z,51.37
2019-05-19T08:01:07.231Z,48.03
2019-05-19T08:03:37.102Z,48.60
2019-05-19T08:06:06.655Z,44.37
2019-05-19T08:08:36.127Z,49.30
2019-05-19T08:11:05.553Z,50.23
2019-05-19T08:13:59.679Z,44.10
2019-05-19T08:16:29.213Z,45.97
2019-05-19T08:18:59.366Z,46.07
2019-05-19T08:21:28.995Z,46.17
2019-05-19T08:24:00.887Z,45.80
2019-05-19T08:26:30.070Z,43.57
2019-05-19T08:29:00.674Z,43.00
2019-05-19T08:31:31.795Z,42.77
2019-05-19T08:34:01.404Z,41.90
2019-05-19T08:36:30.877Z,38.60
2019-05-19T08:39:00.345Z,42.03
2019-05-19T08:41:29.772Z,38.53
2019-05-19T08:43:59.263Z,39.80
2019-05-19T08:46:28.707Z,39.20
2019-05-19T08:48:58.671Z,37.50
2019-05-19T08:51:31.817Z,35.53
2019-05-19T08:54:13.768Z,35.70
2019-05-19T08:56:32.445Z,36.50
2019-05-19T08:59:25.969Z,34.77
2019-05-19T09:07:30.753Z,30.70
2019-05-19T09:10:02.725Z,30.37
2019-05-19T09:12:34.035Z,31.77
2019-05-19T09:18:11.204Z,31.87
2019-05-19T09:20:40.682Z,31.73
2019-05-19T09:23:10.222Z,31.77
2019-05-19T09:25:39.745Z,32.57
2019-05-19T09:28:09.329Z,36.40
2019-05-19T09:36:10.916Z,35.30
2019-05-19T09:38:40.373Z,31.73
2019-05-19T09:41:09.973Z,32.07
2019-05-19T09:43:39.567Z,29.87
2019-05-19T09:46:09.138Z,26.50
2019-05-19T09:48:38.599Z,25.13
2019-05-19T09:51:08.117Z,22.60
2019-05-19T09:53:37.683Z,20.50
2019-05-19T09:56:07.741Z,20.40
2019-05-19T09:58:40.549Z,18.67
2019-05-19T10:01:10.410Z,15.73
2019-05-19T10:03:40.816Z,11.73
2019-05-19T10:06:10.650Z,16.57
2019-05-19T10:09:00.864Z,17.43
2019-05-19T10:12:05.758Z,17.07
2019-05-19T10:14:40.526Z,19.70
2019-05-19T10:20:11.407Z,17.20
2019-05-19T10:22:42.025Z,20.73
2019-05-19T10:25:22.921Z,18.23
2019-05-19T10:27:50.937Z,18.53
2019-05-19T10:30:20.474Z,20.23
2019-05-19T10:32:49.935Z,18.90
2019-05-19T10:35:19.386Z,19.77
2019-05-19T10:37:50.352Z,21.70
2019-05-19T10:40:20.183Z,20.30
2019-05-19T10:43:04.278Z,20.33
2019-05-19T10:45:35.084Z,22.13
2019-05-19T10:48:07.806Z,19.87
2019-05-19T10:50:48.536Z,23.00
2019-05-19T10:53:19.131Z,24.57
2019-05-19T11:01:23.670Z,23.03
2019-05-19T11:03:53.303Z,23.20
2019-05-19T11:06:22.806Z,22.20
2019-05-19T11:08:52.567Z,24.17
2019-05-19T11:11:21.971Z,22.00
2019-05-19T11:13:51.536Z,20.20
2019-05-19T11:22:12.922Z,25.30
2019-05-19T11:24:42.568Z,23.03
2019-05-19T11:27:12.922Z,23.00
2019-05-19T11:29:58.690Z,25.23
2019-05-19T11:38:06.390Z,26.13
2019-05-19T11:40:35.884Z,26.90
2019-05-19T11:43:10.043Z,24.87
2019-05-19T11:45:41.017Z,20.77
2019-05-19T11:48:11.790Z,22.67
2019-05-19T11:50:42.346Z,22.30
2019-05-19T11:53:12.058Z,22.43
2019-05-19T11:55:44.047Z,25.77
2019-05-19T11:58:13.560Z,26.00
2019-05-19T12:00:43.514Z,21.63
2019-05-19T12:06:12.041Z,19.27
2019-05-19T12:08:45.934Z,22.43
2019-05-19T12:11:15.309Z,22.73
2019-05-19T12:13:44.871Z,20.30
2019-05-19T12:16:14.691Z,20.83
2019-05-19T12:18:44.137Z,22.03
2019-05-19T12:21:15.650Z,20.03
2019-05-19T12:23:45.118Z,18.63
2019-05-19T12:26:23.011Z,20.23
2019-05-19T12:28:47.120Z,18.57
2019-05-19T12:31:16.695Z,16.43
2019-05-19T12:33:52.132Z,15.33
2019-05-19T12:36:19.989Z,15.97
2019-05-19T12:41:35.321Z,16.77
2019-05-19T12:44:04.770Z,15.80
2019-05-19T12:46:35.317Z,15.20
2019-05-19T12:49:04.850Z,15.87
2019-05-19T12:51:34.331Z,16.23
2019-05-19T12:54:03.922Z,15.07
2019-05-19T12:56:39.867Z,10.47
2019-05-19T12:59:04.606Z,10.23
2019-05-19T13:01:34.099Z,9.87
2019-05-19T13:04:06.729Z,9.60
2019-05-19T13:06:36.603Z,8.63
2019-05-19T13:09:06.436Z,8.70
2019-05-19T13:11:35.895Z,9.67
2019-05-19T13:14:05.405Z,9.60
2019-05-19T13:16:34.908Z,7.10
2019-05-19T13:19:06.577Z,7.37
2019-05-19T13:21:36.093Z,6.57
2019-05-19T13:24:06.218Z,6.50
2019-05-19T13:26:35.677Z,7.17
2019-05-19T13:29:06.212Z,6.60
2019-05-19T13:31:38.955Z,6.80
2019-05-19T13:34:08.449Z,6.80
2019-05-19T13:42:24.674Z,8.13
2019-05-19T13:44:56.601Z,7.50
2019-05-19T13:47:35.519Z,6.70
2019-05-19T13:50:06.737Z,8.20
2019-05-19T13:52:58.562Z,7.63
2019-05-19T13:55:28.125Z,8.13
2019-05-19T13:58:06.599Z,8.97
2019-05-19T14:00:32.793Z,7.53
2019-05-19T14:03:04.096Z,7.47
2019-05-19T14:05:34.146Z,8.10
2019-05-19T14:08:03.837Z,9.63
2019-05-19T14:10:33.531Z,8.67
2019-05-19T14:13:12.293Z,9.17
2019-05-19T14:15:45.670Z,8.03
2019-05-19T14:18:15.382Z,10.13
2019-05-19T14:20:44.969Z,7.53
2019-05-19T14:23:14.750Z,9.77
2019-05-19T14:25:45.846Z,8.87
2019-05-19T14:28:15.396Z,11.40
2019-05-19T14:30:44.992Z,9.30
2019-05-19T14:33:14.648Z,9.20
2019-05-19T14:35:44.496Z,10.63
2019-05-19T14:38:14.164Z,10.53
2019-05-19T14:40:44.556Z,9.77
2019-05-19T14:43:31.291Z,10.43
2019-05-19T14:46:06.571Z,10.73
2019-05-19T14:48:37.737Z,11.93
2019-05-19T14:51:15.369Z,12.10
2019-05-19T14:53:44.899Z,10.87
2019-05-19T14:56:16.887Z,11.67
2019-05-19T14:58:53.921Z,11.83
2019-05-19T15:01:41.501Z,14.50
2019-05-19T15:04:32.476Z,17.10
2019-05-19T15:07:05.035Z,15.17
2019-05-19T15:09:54.002Z,18.67
2019-05-19T15:12:50.480Z,19.07
2019-05-19T15:15:24.064Z,17.23
2019-05-19T15:18:13.329Z,15.60
2019-05-19T15:26:20.319Z,17.93
2019-05-19T15:28:49.777Z,19.70
2019-05-19T15:31:31.500Z,19.50
2019-05-19T15:34:01.088Z,22.20
2019-05-19T15:36:30.603Z,23.43
2019-05-19T15:39:02.231Z,22.27
2019-05-19T15:41:39.774Z,25.97
2019-05-19T15:44:11.922Z,27.67
2019-05-19T15:46:49.288Z,24.87
2019-05-19T16:06:18.396Z,24.33
2019-05-19T16:08:59.073Z,22.17
2019-05-19T16:11:29.454Z,24.07
2019-05-19T16:14:17.207Z,21.60
2019-05-19T16:19:56.259Z,19.77
2019-05-19T16:22:34.781Z,18.53
2019-05-19T16:25:04.433Z,20.70
2019-05-19T16:27:34.493Z,19.73
2019-05-19T16:30:05.909Z,24.10
2019-05-19T16:32:45.912Z,26.73
2019-05-19T16:37:51.550Z,31.03
2019-05-19T16:40:21.257Z,31.63
2019-05-19T16:42:50.799Z,34.37
2019-05-19T16:45:20.680Z,36.10
2019-05-19T16:47:51.725Z,37.80
2019-05-19T16:50:24.009Z,36.53
2019-05-19T16:52:54.579Z,38.77
2019-05-19T16:55:28.416Z,40.07
2019-05-19T16:58:02.847Z,40.10
2019-05-19T17:00:35.239Z,38.97
2019-05-19T17:03:07.657Z,38.00
2019-05-19T17:05:39.043Z,40.07
2019-05-19T17:08:08.283Z,35.80
2019-05-19T17:10:39.373Z,34.67
2019-05-19T17:13:10.128Z,36.63
2019-05-19T17:15:39.763Z,38.33
2019-05-19T17:18:09.247Z,36.83
2019-05-19T17:26:38.209Z,43.27
2019-05-19T17:29:08.055Z,44.97
2019-05-19T17:31:38.835Z,41.67
2019-05-19T17:34:08.445Z,45.03
2019-05-19T17:36:37.813Z,40.50
2019-05-19T17:39:10.079Z,41.53
2019-05-19T17:41:39.626Z,42.77
2019-05-19T17:44:10.702Z,43.33
2019-05-19T17:46:40.128Z,36.50
2019-05-19T17:49:09.592Z,19.90
2019-05-19T17:51:39.076Z,16.53
2019-05-19T17:54:08.530Z,19.50
2019-05-19T17:56:39.091Z,14.40
2019-05-19T17:59:16.112Z,15.67
2019-05-19T18:01:39.624Z,13.23
2019-05-19T18:04:09.074Z,11.90
2019-05-19T18:06:38.519Z,13.27
2019-05-19T18:09:08.041Z,16.13
2019-05-19T18:11:37.482Z,12.07
2019-05-19T18:14:07.064Z,14.17
2019-05-19T18:16:36.591Z,11.57
2019-05-19T18:19:06.222Z,12.70
2019-05-19T18:21:35.726Z,11.27
2019-05-19T18:24:06.511Z,9.93
2019-05-19T18:26:36.037Z,9.37
2019-05-19T18:29:05.565Z,10.57
2019-05-19T18:31:35.065Z,9.23
2019-05-19T18:34:04.558Z,10.20
2019-05-19T18:36:34.046Z,9.10
2019-05-19T18:39:04.892Z,8.97
2019-05-19T18:41:34.408Z,9.47
2019-05-19T18:44:03.881Z,8.93
2019-05-19T18:46:33.357Z,8.20
2019-05-19T18:49:02.874Z,10.03
2019-05-19T18:51:32.346Z,9.50
2019-05-19T18:54:01.952Z,10.87
2019-05-19T18:56:31.560Z,8.90
2019-05-19T18:59:01.087Z,10.30
2019-05-19T19:01:31.982Z,7.40
2019-05-19T19:04:01.661Z,7.80
2019-05-19T19:06:32.277Z,10.03
2019-05-19T19:09:01.757Z,10.70
2019-05-19T19:11:31.198Z,8.87
2019-05-19T19:14:00.679Z,7.17
2019-05-19T19:16:30.212Z,7.90
2019-05-19T19:18:59.751Z,8.17
2019-05-19T19:21:29.215Z,7.70
2019-05-19T19:23:58.647Z,7.30
2019-05-19T19:26:28.200Z,11.90
2019-05-19T19:28:57.718Z,9.93
2019-05-19T19:31:27.206Z,16.57
2019-05-19T19:33:56.733Z,21.70
2019-05-19T19:36:26.236Z,16.43
2019-05-19T19:38:55.784Z,18.63
2019-05-19T19:41:25.196Z,10.70
2019-05-19T19:43:54.672Z,13.27
2019-05-19T19:46:24.187Z,12.00
2019-05-19T19:48:53.638Z,12.47
2019-05-19T19:51:23.068Z,10.57
2019-05-19T19:53:52.563Z,10.60
2019-05-19T19:56:22.021Z,10.50
2019-05-19T19:58:51.491Z,11.60
2019-05-19T20:01:21.006Z,10.33
2019-05-19T20:03:50.539Z,11.20
2019-05-19T20:06:20.115Z,12.90
2019-05-19T20:08:49.685Z,18.17
2019-05-19T20:11:19.165Z,14.43
2019-05-19T20:27:16.300Z,24.70
2019-05-19T20:29:45.914Z,22.97
2019-05-19T20:32:15.572Z,26.70
2019-05-19T20:34:45.042Z,18.90
2019-05-19T20:37:15.304Z,20.17
2019-05-19T20:40:03.949Z,16.67
2019-05-19T20:42:33.478Z,19.70
2019-05-19T20:45:02.907Z,18.13
2019-05-19T20:47:32.353Z,17.80
2019-05-19T20:50:01.956Z,17.43
2019-05-19T20:52:31.532Z,17.63
2019-05-19T20:55:00.994Z,21.20
2019-05-19T20:57:30.454Z,22.53
2019-05-19T20:59:59.923Z,18.67
2019-05-19T21:02:29.436Z,31.43
2019-05-19T21:04:58.870Z,31.43
2019-05-19T21:07:28.321Z,41.43
2019-05-19T21:09:57.855Z,39.70
2019-05-19T21:12:27.354Z,45.07
2019-05-19T21:14:56.811Z,42.03
2019-05-19T21:17:26.270Z,42.97
2019-05-19T21:19:55.741Z,43.23
2019-05-19T21:22:25.179Z,42.93
2019-05-19T21:24:54.681Z,45.50
2019-05-19T21:27:24.133Z,41.30
2019-05-19T21:29:53.666Z,42.37
2019-05-19T21:32:23.118Z,57.60
2019-05-19T21:34:52.576Z,47.40
2019-05-19T21:37:22.054Z,44.53
2019-05-19T21:39:51.533Z,48.47
2019-05-19T21:42:20.998Z,50.00
2019-05-19T21:47:45.173Z,42.57
2019-05-19T21:50:14.713Z,45.07
2019-05-19T21:52:44.129Z,47.13
2019-05-19T21:55:13.570Z,46.27
2019-05-19T21:57:42.993Z,53.70
2019-05-19T22:00:13.999Z,51.17
2019-05-19T22:02:43.425Z,55.40
2019-05-19T22:05:12.870Z,49.60
2019-05-19T22:08:13.652Z,50.67
2019-05-19T22:10:43.110Z,53.73
2019-05-19T22:13:12.550Z,51.80
2019-05-19T22:15:41.980Z,48.30
2019-05-19T22:18:11.407Z,52.60
2019-05-19T22:20:40.902Z,55.30
2019-05-19T22:23:10.259Z,53.37
2019-05-19T22:25:39.703Z,54.60
2019-05-19T22:28:26.731Z,52.37
2019-05-19T22:30:56.221Z,57.17
2019-05-19T22:33:25.778Z,52.73
2019-05-19T22:35:55.240Z,54.27
2019-05-19T22:38:24.681Z,55.80
2019-05-19T22:40:54.141Z,58.27
2019-05-19T22:43:23.583Z,52.90
2019-05-19T22:45:53.039Z,53.17
2019-05-19T22:48:22.554Z,49.63
2019-05-19T22:50:51.986Z,51.37
2019-05-19T22:53:21.445Z,54.60
2019-05-19T22:55:50.899Z,50.77
2019-05-19T22:58:20.278Z,45.97
2019-05-19T23:00:49.748Z,46.33
2019-05-19T23:03:19.189Z,47.10
2019-05-19T23:05:48.642Z,44.37
2019-05-19T23:08:18.075Z,48.90
2019-05-19T23:10:47.531Z,45.97
2019-05-19T23:13:16.976Z,49.10
2019-05-19T23:15:46.477Z,44.17
2019-05-19T23:18:35.023Z,43.93
2019-05-19T23:21:04.481Z,43.33
2019-05-19T23:23:33.928Z,42.90
2019-05-19T23:26:03.391Z,46.27
2019-05-19T23:28:32.845Z,44.03
2019-05-19T23:31:02.275Z,47.70
2019-05-19T23:33:31.684Z,49.53
2019-05-19T23:36:01.144Z,41.80
2019-05-19T23:38:30.651Z,41.87
2019-05-19T23:41:00.104Z,41.23
2019-05-19T23:43:29.546Z,42.33
2019-05-19T23:45:58.990Z,43.30
2019-05-19T23:48:28.532Z,43.33
2019-05-19T23:50:58.409Z,45.47
2019-05-19T23:53:27.837Z,40.10
2019-05-19T23:55:57.273Z,43.97
2019-05-19T23:58:26.854Z,41.33
